Time;durP1;ratioP1;P1;durP2;ratioP2;P2;SDS_P1;SDS_P2;PMS_P1;PMS_P2;Temp;Humidity;BMP_temperature;BMP_pressure;BME280_temperature;BME280_humidity;BME280_pressure;Samples;Min_cycle;Max_cycle;Signal;HPM_P1;HPM_P2
2023/02/21 02:16:44;;;;;;;1.67;1.00;;;;;;;10.00;46.05;97767.84;6301249;28;20231;-38
2023/02/21 02:20:09;;;;;;;1.73;0.93;;;;;;;10.12;45.90;97765.16;6328437;28;20230;-38
2023/02/21 02:23:25;;;;;;;1.63;1.17;;;;;;;10.09;45.90;97759.25;6310439;28;20233;-38
2023/02/21 02:26:51;;;;;;;4.30;1.30;;;;;;;10.11;46.01;97753.72;6324830;28;20230;-38
2023/02/21 02:30:27;;;;;;;2.60;1.27;;;;;;;10.07;46.65;97752.56;6322691;28;20282;-38
2023/02/21 02:33:58;;;;;;;1.60;1.03;;;;;;;10.05;46.14;97750.16;6322126;28;20230;-38
2023/02/21 02:37:37;;;;;;;2.90;1.10;;;;;;;9.84;46.72;97729.47;6308086;28;20706;-38
2023/02/21 02:41:13;;;;;;;2.37;1.10;;;;;;;9.74;47.72;97753.22;6325265;28;20306;-38
2023/02/21 02:44:27;;;;;;;2.47;1.43;;;;;;;9.74;47.09;97734.59;6330332;28;20309;-38
2023/02/21 02:47:35;;;;;;;3.90;1.40;;;;;;;9.80;46.42;97721.19;6306615;28;20225;-38
2023/02/21 02:50:38;;;;;;;1.43;0.97;;;;;;;9.73;46.89;97715.16;6330028;28;20611;-38
2023/02/21 02:53:40;;;;;;;1.63;1.20;;;;;;;9.81;46.52;97722.78;6333827;28;20229;-38
2023/02/21 02:56:45;;;;;;;3.43;1.20;;;;;;;9.87;46.90;97723.69;6334712;28;20370;-38
2023/02/21 02:59:47;;;;;;;1.93;1.30;;;;;;;9.89;46.32;97720.78;6310017;28;20218;-38
2023/02/21 03:03:10;;;;;;;2.00;1.10;;;;;;;9.77;46.76;97726.97;6329074;28;20238;-38
2023/02/21 03:06:31;;;;;;;2.10;1.20;;;;;;;9.73;46.75;97717.84;6310727;27;20230;-38
2023/02/21 03:09:51;;;;;;;1.23;1.13;;;;;;;9.72;46.80;97715.41;6310420;27;20228;-38
2023/02/21 03:13:05;;;;;;;3.00;1.10;;;;;;;9.73;47.36;97723.16;6324940;27;20234;-38
2023/02/21 03:16:14;;;;;;;10.33;1.40;;;;;;;9.71;46.95;97721.78;6314708;27;20238;-38
2023/02/21 03:19:21;;;;;;;1.73;1.20;;;;;;;9.68;46.73;97728.38;6312209;28;20698;-38
2023/02/21 03:22:29;;;;;;;1.93;1.10;;;;;;;9.67;47.08;97728.63;6331860;27;20237;-38
2023/02/21 03:25:33;;;;;;;4.07;1.20;;;;;;;9.68;46.91;97731.03;6334713;27;20241;-38
2023/02/21 03:28:37;;;;;;;2.47;1.13;;;;;;;9.70;46.54;97730.78;6323903;27;20235;-38
2023/02/21 03:31:45;;;;;;;3.53;1.43;;;;;;;9.73;46.65;97709.03;6337004;27;20332;-38
2023/02/21 03:34:48;;;;;;;3.53;1.20;;;;;;;9.73;47.10;97711.72;6329570;27;20603;-38
2023/02/21 03:37:52;;;;;;;2.03;1.20;;;;;;;9.71;46.67;97705.81;6320254;27;20379;-38
2023/02/21 03:40:58;;;;;;;4.27;1.67;;;;;;;9.53;47.80;97720.06;6318127;27;20241;-39
2023/02/21 03:44:00;;;;;;;2.73;1.20;;;;;;;9.71;46.89;97706.63;6314413;27;20234;-37
2023/02/21 03:47:02;;;;;;;2.60;1.30;;;;;;;9.57;47.10;97719.38;6313440;28;20233;-37
2023/02/21 03:50:06;;;;;;;4.17;1.27;;;;;;;9.54;47.57;97705.72;6334131;28;20313;-37
2023/02/21 03:53:11;;;;;;;2.30;1.10;;;;;;;9.53;47.27;97709.44;6315824;28;20886;-40
2023/02/21 03:56:17;;;;;;;2.00;1.40;;;;;;;9.55;47.56;97712.66;6314873;28;20279;-38
2023/02/21 03:59:42;;;;;;;1.17;0.93;;;;;;;9.35;47.55;97683.00;6331641;27;20230;-38
2023/02/21 04:02:44;;;;;;;3.60;1.40;;;;;;;9.56;47.47;97693.84;6330941;27;20245;-38
2023/02/21 04:05:57;;;;;;;3.03;1.33;;;;;;;9.47;48.08;97710.38;6330091;27;20234;-38
2023/02/21 04:09:00;;;;;;;2.60;1.33;;;;;;;9.50;47.69;97710.69;6329570;27;20263;-38
2023/02/21 04:12:02;;;;;;;1.90;1.23;;;;;;;9.44;47.86;97701.00;6308150;27;20237;-38
2023/02/21 04:15:05;;;;;;;3.50;1.23;;;;;;;9.33;48.16;97695.72;6312121;28;20210;-37
2023/02/21 04:18:08;;;;;;;2.20;1.43;;;;;;;9.35;48.02;97697.09;6311454;28;20304;-38
2023/02/21 04:21:16;;;;;;;3.30;1.47;;;;;;;9.41;47.91;97709.47;6311664;28;20659;-38
2023/02/21 04:24:18;;;;;;;2.87;1.33;;;;;;;9.39;48.53;97726.69;6312091;28;20210;-38
2023/02/21 04:27:21;;;;;;;3.87;1.60;;;;;;;9.48;47.72;97704.00;6335027;27;20712;-38
2023/02/21 04:30:27;;;;;;;2.47;1.33;;;;;;;9.36;48.03;97709.34;6329579;27;20700;-38
2023/02/21 04:33:30;;;;;;;2.80;1.30;;;;;;;9.42;48.04;97713.75;6331818;27;20229;-38
2023/02/21 04:36:32;;;;;;;2.37;1.17;;;;;;;9.33;48.28;97715.13;6335464;27;20221;-38
2023/02/21 04:39:34;;;;;;;2.77;1.70;;;;;;;9.37;48.50;97710.97;6317505;27;20731;-38
2023/02/21 04:42:36;;;;;;;3.43;1.20;;;;;;;9.27;48.96;97714.22;6293899;27;20232;-37
2023/02/21 04:45:38;;;;;;;2.37;1.50;;;;;;;9.27;49.08;97719.53;6328918;28;20304;-37
2023/02/21 04:48:44;;;;;;;2.53;1.77;;;;;;;9.16;49.70;97700.91;6331090;27;20269;-38
2023/02/21 04:51:46;;;;;;;3.10;1.43;;;;;;;9.20;49.49;97707.38;6310639;28;20672;-38
2023/02/21 04:54:48;;;;;;;3.73;1.60;;;;;;;9.09;50.48;97719.66;6329907;27;20245;-38
2023/02/21 04:57:50;;;;;;;2.13;1.37;;;;;;;8.76;49.66;97659.91;6329458;27;20230;-38
2023/02/21 05:00:52;;;;;;;2.60;1.50;;;;;;;9.10;49.68;97713.28;6329217;27;20783;-38
2023/02/21 05:03:54;;;;;;;2.13;1.50;;;;;;;8.99;49.96;97711.44;6328813;27;20233;-38
2023/02/21 05:06:58;;;;;;;1.57;1.20;;;;;;;8.98;50.08;97709.81;6335791;27;20679;-38
2023/02/21 05:10:00;;;;;;;3.63;1.33;;;;;;;9.05;50.42;97705.19;6325932;27;20725;-39
2023/02/21 05:13:02;;;;;;;3.97;1.73;;;;;;;8.82;50.69;97671.47;6311721;28;20696;-38
2023/02/21 05:16:05;;;;;;;2.93;1.30;;;;;;;9.02;49.88;97703.81;6330935;27;20240;-38
2023/02/21 05:19:07;;;;;;;4.43;1.70;;;;;;;8.97;50.34;97709.03;6331534;27;20705;-38
2023/02/21 05:22:09;;;;;;;3.30;1.30;;;;;;;9.09;49.93;97708.22;6326455;27;20274;-38
2023/02/21 05:25:17;;;;;;;2.47;1.30;;;;;;;9.14;49.54;97703.81;6330723;27;20236;-38
2023/02/21 05:28:19;;;;;;;1.40;1.30;;;;;;;9.15;49.79;97702.75;6311798;27;20226;-38
2023/02/21 05:31:22;;;;;;;3.00;1.57;;;;;;;9.16;49.88;97698.25;6330709;27;20323;-38
2023/02/21 05:34:24;;;;;;;4.13;1.63;;;;;;;9.11;49.98;97703.47;6328277;28;20328;-38
2023/02/21 05:37:26;;;;;;;3.53;1.33;;;;;;;9.07;50.22;97700.47;6328182;28;20281;-38
2023/02/21 05:40:31;;;;;;;2.67;1.60;;;;;;;9.10;50.08;97701.84;6324010;28;20221;-37
2023/02/21 05:43:33;;;;;;;3.83;1.47;;;;;;;9.08;50.47;97701.28;6329356;27;20228;-38
2023/02/21 05:46:35;;;;;;;3.17;1.87;;;;;;;9.12;50.11;97703.25;6328128;27;20726;-38
2023/02/21 05:49:37;;;;;;;2.07;1.50;;;;;;;9.06;50.68;97722.75;6311193;28;20255;-38
2023/02/21 05:52:39;;;;;;;1.43;1.27;;;;;;;9.11;50.22;97714.09;6326543;28;20462;-38
2023/02/21 05:55:41;;;;;;;3.53;1.90;;;;;;;8.75;50.35;97673.41;6328069;28;20895;-38
2023/02/21 05:58:43;;;;;;;3.47;1.73;;;;;;;9.01;50.93;97701.38;6327869;27;20219;-38
2023/02/21 06:01:47;;;;;;;3.13;1.70;;;;;;;8.99;50.64;97701.63;6309557;28;20249;-38
2023/02/21 06:04:49;;;;;;;4.27;1.70;;;;;;;9.07;50.21;97747.50;6327131;28;20231;-38
2023/02/21 06:07:51;;;;;;;3.73;1.70;;;;;;;9.13;50.26;97712.84;6330609;27;20227;-38
2023/02/21 06:10:53;;;;;;;3.27;1.57;;;;;;;8.92;50.09;97692.97;6331763;28;20613;-38
2023/02/21 06:13:57;;;;;;;3.33;1.60;;;;;;;9.05;50.82;97716.63;6330172;27;20720;-38
2023/02/21 06:16:59;;;;;;;6.23;1.80;;;;;;;9.04;50.42;97704.38;6330484;27;20267;-38
2023/02/21 06:20:02;;;;;;;3.73;1.80;;;;;;;9.05;50.42;97721.13;6328901;28;20695;-38
2023/02/21 06:23:04;;;;;;;2.70;1.50;;;;;;;9.03;50.45;97739.97;6327516;27;20804;-37
2023/02/21 06:26:06;;;;;;;4.60;1.80;;;;;;;9.12;50.06;97726.34;6324961;28;20817;-38
2023/02/21 06:29:09;;;;;;;3.27;1.70;;;;;;;9.11;49.88;97733.50;6326722;28;20722;-38
2023/02/21 06:32:11;;;;;;;3.20;1.77;;;;;;;9.11;50.38;97727.38;6328209;28;20237;-38
2023/02/21 06:35:14;;;;;;;4.43;1.57;;;;;;;9.11;49.92;97730.03;6328587;28;20225;-38
2023/02/21 06:38:16;;;;;;;3.53;1.83;;;;;;;9.16;50.21;97762.88;6328768;28;20231;-38
2023/02/21 06:41:20;;;;;;;2.13;1.50;;;;;;;9.08;50.46;97759.75;6332008;27;20724;-38
2023/02/21 06:44:22;;;;;;;4.03;1.90;;;;;;;9.07;50.11;97755.47;6332871;27;20229;-38
2023/02/21 06:47:24;;;;;;;2.90;1.50;;;;;;;9.12;50.57;97751.09;6332828;27;20744;-38
2023/02/21 06:50:26;;;;;;;3.07;2.00;;;;;;;9.09;50.24;97758.69;6332776;27;20242;-38
2023/02/21 06:53:28;;;;;;;3.17;1.70;;;;;;;9.11;50.41;97765.38;6332067;27;20754;-38
2023/02/21 06:56:30;;;;;;;4.33;1.63;;;;;;;9.08;50.23;97771.19;6331312;28;20294;-39
2023/02/21 06:59:32;;;;;;;6.93;2.07;;;;;;;9.07;50.39;97763.44;6329335;27;21025;-38
2023/02/21 07:02:34;;;;;;;3.53;1.77;;;;;;;9.15;50.14;97777.19;6331622;27;20225;-38
2023/02/21 07:05:37;;;;;;;3.30;1.90;;;;;;;9.14;50.27;97778.22;6335197;27;20233;-38
2023/02/21 07:08:39;;;;;;;3.67;1.77;;;;;;;9.00;50.62;97748.41;6335235;27;20270;-38
2023/02/21 07:11:41;;;;;;;4.37;1.80;;;;;;;9.13;50.04;97778.47;6335252;27;20598;-38
2023/02/21 07:14:43;;;;;;;6.20;2.10;;;;;;;9.20;50.68;97782.63;6334013;27;20619;-38
2023/02/21 07:17:45;;;;;;;5.23;2.67;;;;;;;9.15;50.57;97787.00;6333369;27;20221;-38
2023/02/21 07:20:48;;;;;;;4.80;2.13;;;;;;;9.20;50.48;97784.47;6327768;28;20647;-38
2023/02/21 07:23:50;;;;;;;3.20;2.10;;;;;;;9.23;51.11;97792.78;6329492;28;20284;-39
2023/02/21 07:26:52;;;;;;;3.90;2.00;;;;;;;9.11;51.19;97762.72;6333855;27;20287;-38
2023/02/21 07:29:54;;;;;;;4.00;1.93;;;;;;;9.25;50.64;97776.59;6334360;27;20661;-38
2023/02/21 07:32:57;;;;;;;5.03;2.20;;;;;;;9.34;51.30;97791.19;6332328;27;20239;-38
2023/02/21 07:35:59;;;;;;;3.90;2.10;;;;;;;9.25;51.78;97787.25;6334593;27;20324;-38
2023/02/21 07:39:01;;;;;;;2.33;1.93;;;;;;;9.37;51.06;97784.59;6333201;27;20233;-38
2023/02/21 07:42:04;;;;;;;5.07;2.10;;;;;;;9.35;50.58;97792.00;6331985;27;20203;-38
2023/02/21 07:45:06;;;;;;;4.40;1.97;;;;;;;9.50;50.78;97800.31;6320995;27;20213;-38
2023/02/21 07:48:08;;;;;;;3.53;2.17;;;;;;;9.59;51.20;97798.91;6330419;28;20797;-38
2023/02/21 07:51:10;;;;;;;2.20;1.60;;;;;;;9.51;51.17;97800.09;6330064;27;20223;-38
2023/02/21 07:54:12;;;;;;;4.50;2.10;;;;;;;9.65;50.21;97800.66;6331141;27;20315;-38
2023/02/21 07:57:15;;;;;;;2.80;1.80;;;;;;;9.75;50.75;97800.06;6327065;27;20604;-38
2023/02/21 08:00:18;;;;;;;3.40;2.33;;;;;;;9.76;50.15;97794.53;6328123;27;20557;-38
2023/02/21 08:03:20;;;;;;;4.93;2.53;;;;;;;9.79;50.42;97779.94;6324855;28;20211;-38
2023/02/21 08:06:22;;;;;;;4.50;2.57;;;;;;;9.80;50.16;97801.00;6329655;28;20242;-38
2023/02/21 08:09:24;;;;;;;4.47;2.20;;;;;;;9.94;49.69;97793.56;6323335;27;20503;-38
2023/02/21 08:12:26;;;;;;;3.27;1.77;;;;;;;9.93;50.60;97786.63;6330058;27;20711;-38
2023/02/21 08:15:28;;;;;;;5.30;2.17;;;;;;;9.89;50.63;97771.34;6330142;28;20601;-38
2023/02/21 08:18:30;;;;;;;4.47;2.10;;;;;;;10.16;49.35;97790.28;6330181;27;20313;-39
2023/02/21 08:21:32;;;;;;;3.77;1.87;;;;;;;10.35;49.07;97812.25;6331796;27;20233;-38
2023/02/21 08:24:34;;;;;;;4.53;2.53;;;;;;;10.51;48.84;97816.81;6331088;27;20232;-38
2023/02/21 08:27:41;;;;;;;3.87;2.33;;;;;;;10.94;47.82;97816.25;6327823;28;20227;-38
2023/02/21 08:30:43;;;;;;;3.90;2.00;;;;;;;11.58;46.15;97826.63;6329818;28;20304;-38
2023/02/21 08:33:45;;;;;;;3.83;2.27;;;;;;;12.20;44.50;97820.25;6328764;27;20254;-38
2023/02/21 08:36:47;;;;;;;2.53;1.73;;;;;;;13.91;41.83;97818.59;6332886;27;20227;-38
2023/02/21 08:39:51;;;;;;;3.53;2.03;;;;;;;15.06;38.80;97844.47;6331499;27;20625;-38
2023/02/21 08:42:53;;;;;;;4.33;2.07;;;;;;;14.61;39.05;97811.13;6327186;28;20233;-38
2023/02/21 08:45:55;;;;;;;3.37;1.90;;;;;;;13.65;40.80;97826.50;6333092;27;20708;-38
2023/02/21 08:48:58;;;;;;;2.90;2.20;;;;;;;13.38;41.81;97823.88;6332249;27;20454;-38
2023/02/21 08:52:00;;;;;;;7.03;2.50;;;;;;;12.86;42.41;97823.69;6331576;27;20333;-37
2023/02/21 08:55:05;;;;;;;3.23;2.23;;;;;;;12.88;42.71;97822.34;6330974;27;20708;-38
2023/02/21 08:58:10;;;;;;;4.57;2.27;;;;;;;12.57;43.09;97828.44;6313049;27;20232;-38
2023/02/21 09:01:12;;;;;;;3.83;1.83;;;;;;;12.64;43.80;97823.69;6332052;27;20217;-38
2023/02/21 09:04:14;;;;;;;3.70;2.33;;;;;;;12.51;43.75;97830.25;6315651;27;20232;-38
2023/02/21 09:07:18;;;;;;;6.97;2.43;;;;;;;12.51;43.58;97829.44;6329202;28;20722;-38
2023/02/21 09:10:21;;;;;;;4.10;2.27;;;;;;;12.51;43.78;97822.25;6325792;27;20755;-38
2023/02/21 09:13:23;;;;;;;2.93;2.00;;;;;;;12.62;43.44;97818.63;6329877;27;20326;-38
2023/02/21 09:16:25;;;;;;;3.40;2.20;;;;;;;12.81;43.38;97831.66;6330055;27;20631;-38
2023/02/21 09:19:27;;;;;;;2.47;1.77;;;;;;;12.89;43.87;97866.75;6329842;27;20249;-38
2023/02/21 09:22:30;;;;;;;5.37;1.80;;;;;;;12.99;43.23;97867.91;6330313;27;20250;-38
2023/02/21 09:25:32;;;;;;;3.77;2.53;;;;;;;13.05;43.06;97858.84;6326899;27;20233;-38
2023/02/21 09:28:34;;;;;;;3.93;2.17;;;;;;;13.02;42.67;97846.81;6327643;27;20281;-38
2023/02/21 09:31:36;;;;;;;2.37;2.17;;;;;;;13.10;43.07;97835.66;6323937;28;20266;-39
2023/02/21 09:34:38;;;;;;;3.93;2.47;;;;;;;12.71;42.88;97799.44;6315414;28;20789;-38
2023/02/21 09:37:41;;;;;;;4.13;2.33;;;;;;;13.06;43.23;97842.59;6328129;27;20228;-39
2023/02/21 09:40:59;;;;;;;4.80;2.10;;;;;;;13.16;43.09;97845.34;6308794;28;20232;-38
2023/02/21 09:44:04;;;;;;;3.53;2.27;;;;;;;13.76;42.83;97837.25;6326168;27;20685;-39
2023/02/21 09:47:12;;;;;;;5.33;2.87;;;;;;;14.25;40.67;97874.50;6328024;28;20229;-38
2023/02/21 09:50:18;;;;;;;3.57;2.47;;;;;;;13.59;40.43;97854.25;6327388;27;20258;-38
2023/02/21 09:53:27;;;;;;;4.10;2.17;;;;;;;13.81;40.51;97824.72;6331996;27;20320;-39
2023/02/21 09:56:37;;;;;;;4.53;2.70;;;;;;;14.29;39.81;97840.78;6327496;27;20221;-39
2023/02/21 09:59:39;;;;;;;4.50;2.60;;;;;;;14.61;39.92;97836.06;6325935;27;20297;-39
2023/02/21 10:03:10;;;;;;;4.93;2.30;;;;;;;14.46;38.84;97799.28;6331856;27;20267;-39
2023/02/21 10:06:35;;;;;;;3.60;2.30;;;;;;;14.62;39.00;97832.31;6329012;27;20232;-39
2023/02/21 10:09:58;;;;;;;4.60;2.20;;;;;;;14.91;38.55;97850.63;6328611;27;20591;-38
2023/02/21 10:13:17;;;;;;;3.97;2.50;;;;;;;14.76;38.79;97839.88;6329294;27;20712;-39
2023/02/21 10:16:39;;;;;;;6.93;2.77;;;;;;;14.58;39.09;97833.94;6329705;27;20277;-39
2023/02/21 10:19:43;;;;;;;3.50;2.23;;;;;;;15.06;38.46;97836.44;6325138;28;20620;-39
2023/02/21 10:22:49;;;;;;;5.93;2.50;;;;;;;15.44;37.56;97852.03;6326114;28;20229;-39
2023/02/21 10:25:57;;;;;;;4.33;2.70;;;;;;;15.60;37.81;97830.53;6325206;28;20719;-39
2023/02/21 10:29:00;;;;;;;4.33;2.67;;;;;;;15.56;36.77;97843.69;6327625;28;20225;-38
2023/02/21 10:32:03;;;;;;;3.37;2.80;;;;;;;15.16;37.69;97856.03;6327470;28;20231;-39
2023/02/21 10:35:05;;;;;;;6.50;2.67;;;;;;;15.15;36.88;97842.88;6322873;28;20232;-39
2023/02/21 10:38:17;;;;;;;4.37;2.37;;;;;;;15.07;38.28;97835.34;6326772;28;20313;-39
2023/02/21 10:41:20;;;;;;;4.57;2.57;;;;;;;15.08;38.24;97828.94;6328545;28;20240;-39
2023/02/21 10:44:30;;;;;;;3.23;2.10;;;;;;;15.51;37.90;97843.69;6332041;28;20296;-39
2023/02/21 10:48:09;;;;;;;5.33;2.50;;;;;;;15.42;38.66;97824.66;6328745;28;20704;-39
2023/02/21 10:51:26;;;;;;;4.03;2.20;;;;;;;15.71;37.65;97827.63;6324479;28;20231;-38
2023/02/21 10:54:29;;;;;;;3.53;2.17;;;;;;;15.71;37.69;97830.31;6329035;28;20258;-39
2023/02/21 10:57:32;;;;;;;4.37;2.00;;;;;;;15.50;38.34;97831.34;6322509;28;20228;-39
2023/02/21 11:00:46;;;;;;;3.23;2.00;;;;;;;15.30;37.95;97825.97;6326376;28;20766;-39
2023/02/21 11:03:52;;;;;;;2.80;2.13;;;;;;;15.50;37.73;97791.06;6328514;28;20228;-39
2023/02/21 11:06:56;;;;;;;5.17;2.17;;;;;;;15.62;38.47;97825.72;6333220;28;20225;-39
2023/02/21 11:09:58;;;;;;;3.40;1.97;;;;;;;15.92;37.36;97800.69;6325458;28;20237;-39
2023/02/21 11:13:15;;;;;;;3.90;1.93;;;;;;;15.94;37.61;97820.03;6326227;28;20221;-39
2023/02/21 11:16:21;;;;;;;3.10;1.97;;;;;;;16.02;37.55;97799.88;6325640;28;20228;-39
2023/02/21 11:19:23;;;;;;;3.60;2.40;;;;;;;16.09;37.92;97798.47;6326962;28;20241;-38
2023/02/21 11:22:35;;;;;;;4.53;2.30;;;;;;;15.99;37.18;97798.53;6321928;28;20236;-39
2023/02/21 11:25:39;;;;;;;2.27;1.87;;;;;;;15.99;38.22;97790.47;6330014;27;20250;-39
2023/02/21 11:28:43;;;;;;;3.80;2.20;;;;;;;15.37;39.29;97775.50;6335039;27;20233;-38
2023/02/21 11:31:46;;;;;;;2.73;2.00;;;;;;;15.62;39.68;97780.06;6327168;28;20317;-39
2023/02/21 11:34:48;;;;;;;2.33;1.90;;;;;;;15.65;39.26;97769.59;6331658;27;20237;-39
2023/02/21 11:37:53;;;;;;;3.43;2.00;;;;;;;15.61;39.75;97773.84;6314560;28;20227;-38
2023/02/21 11:40:55;;;;;;;2.83;2.00;;;;;;;15.38;40.91;97753.78;6333042;27;20342;-38
2023/02/21 11:43:57;;;;;;;3.40;2.57;;;;;;;15.03;40.21;97759.19;6333850;27;20698;-39
2023/02/21 11:47:21;;;;;;;3.13;2.30;;;;;;;14.91;41.48;97783.56;6333258;27;20342;-38
2023/02/21 11:50:27;;;;;;;3.00;2.10;;;;;;;14.92;41.23;97766.41;6329463;27;20725;-38
2023/02/21 11:53:43;;;;;;;3.10;1.93;;;;;;;15.18;41.21;97770.72;6331344;27;20213;-38
2023/02/21 11:57:13;;;;;;;3.23;1.80;;;;;;;15.15;42.18;97765.06;6329949;27;20233;-39
2023/02/21 12:00:28;;;;;;;5.13;2.27;;;;;;;14.59;42.00;97736.34;6329241;27;20217;-38
2023/02/21 12:04:11;;;;;;;2.37;1.97;;;;;;;14.73;42.25;97776.03;6327762;27;20772;-39
2023/02/21 12:07:34;;;;;;;5.57;2.43;;;;;;;14.77;42.05;97774.44;6228020;28;20228;-39
2023/02/21 12:11:04;;;;;;;2.90;1.90;;;;;;;14.77;41.95;97766.38;6235666;28;20235;-39
2023/02/21 12:14:39;;;;;;;3.07;1.87;;;;;;;14.95;41.88;97760.50;6329258;27;20229;-39
2023/02/21 12:17:53;;;;;;;2.80;1.90;;;;;;;15.09;41.54;97750.06;6332753;27;20292;-39
2023/02/21 12:21:16;;;;;;;3.20;2.00;;;;;;;14.83;41.82;97768.03;6333848;27;20321;-39
2023/02/21 12:24:40;;;;;;;4.67;2.20;;;;;;;14.60;43.33;97753.22;6331206;27;20219;-39
2023/02/21 12:28:17;;;;;;;3.13;1.80;;;;;;;14.29;44.30;97757.69;6331765;27;20220;-38
2023/02/21 12:31:34;;;;;;;2.53;2.00;;;;;;;14.15;43.63;97763.53;6324831;28;20748;-38
2023/02/21 12:34:55;;;;;;;3.00;1.70;;;;;;;14.44;42.91;97752.38;6331215;27;20228;-39
2023/02/21 12:38:09;;;;;;;3.23;1.93;;;;;;;14.49;43.22;97751.59;6333004;27;20339;-39
2023/02/21 12:41:34;;;;;;;2.83;1.90;;;;;;;14.55;43.23;97743.31;6322742;27;20286;-39
2023/02/21 12:45:15;;;;;;;2.80;2.10;;;;;;;14.38;43.03;97748.88;6329135;27;20240;-39
2023/02/21 12:48:42;;;;;;;3.10;1.97;;;;;;;14.54;43.01;97739.03;6312337;27;20312;-38
2023/02/21 12:52:20;;;;;;;4.17;1.80;;;;;;;14.80;43.07;97728.31;6326220;27;20696;-39
2023/02/21 12:55:26;;;;;;;3.23;1.90;;;;;;;14.88;42.80;97731.28;6322234;28;20236;-39
2023/02/21 12:58:38;;;;;;;3.80;2.00;;;;;;;14.93;42.79;97730.47;6329319;27;20225;-39
2023/02/21 13:02:21;;;;;;;3.70;1.70;;;;;;;14.94;42.07;97718.66;6326845;28;20225;-39
2023/02/21 13:05:38;;;;;;;2.70;2.00;;;;;;;15.03;42.97;97709.00;6325131;27;20225;-39
2023/02/21 13:08:49;;;;;;;3.43;1.97;;;;;;;14.97;42.28;97710.06;6329567;27;20221;-39
2023/02/21 13:12:04;;;;;;;3.03;1.80;;;;;;;14.93;42.75;97703.66;6325917;28;20232;-39
2023/02/21 13:15:18;;;;;;;4.73;1.90;;;;;;;14.80;43.16;97699.63;6326943;28;20305;-38
2023/02/21 13:18:25;;;;;;;2.90;1.70;;;;;;;15.03;42.87;97706.31;6325526;27;20363;-39
2023/02/21 13:21:38;;;;;;;4.40;1.77;;;;;;;15.01;42.55;97700.41;6326885;27;20690;-39
2023/02/21 13:25:09;;;;;;;2.17;1.67;;;;;;;14.74;42.85;97699.91;6328399;28;20248;-39
2023/02/21 13:28:18;;;;;;;2.10;1.80;;;;;;;14.75;42.75;97701.50;6326901;27;20233;-39
2023/02/21 13:31:35;;;;;;;2.73;1.60;;;;;;;14.67;43.63;97705.50;6324979;28;20240;-39
2023/02/21 13:34:47;;;;;;;2.43;1.43;;;;;;;14.67;43.54;97697.47;6329625;27;20229;-39
2023/02/21 13:37:51;;;;;;;1.70;1.30;;;;;;;14.57;43.84;97694.78;6330934;27;20235;-39
2023/02/21 13:41:10;;;;;;;1.70;1.47;;;;;;;14.42;44.92;97690.97;6331264;27;20350;-39
2023/02/21 13:44:26;;;;;;;2.80;1.77;;;;;;;14.30;44.80;97689.63;6328565;27;20228;-38
2023/02/21 13:47:58;;;;;;;2.30;1.60;;;;;;;14.15;44.64;97679.69;6323718;27;20602;-38
2023/02/21 13:51:00;;;;;;;2.10;1.17;;;;;;;14.39;44.97;97696.06;6327169;27;20244;-39
2023/02/21 13:54:20;;;;;;;2.03;1.33;;;;;;;14.22;44.83;97692.81;6329988;27;20241;-39
2023/02/21 13:57:30;;;;;;;1.80;1.50;;;;;;;14.04;44.73;97711.00;6333158;27;20327;-38
2023/02/21 14:00:32;;;;;;;4.50;1.60;;;;;;;13.92;45.75;97699.69;6329463;27;20225;-39
2023/02/21 14:03:34;;;;;;;3.30;1.60;;;;;;;13.77;46.13;97710.34;6328065;28;20255;-39
2023/02/21 14:06:36;;;;;;;2.70;1.50;;;;;;;13.75;45.82;97701.78;6329027;27;20623;-39
2023/02/21 14:09:40;;;;;;;2.30;1.37;;;;;;;13.70;45.47;97680.34;6327326;27;20599;-38
2023/02/21 14:12:44;;;;;;;2.27;1.20;;;;;;;13.51;46.16;97655.91;6325727;28;20301;-39
2023/02/21 14:15:50;;;;;;;3.53;1.60;;;;;;;13.50;46.10;97715.84;6326865;28;20240;-38
2023/02/21 14:19:04;;;;;;;1.87;1.33;;;;;;;13.51;46.44;97699.53;6326797;28;20645;-39
2023/02/21 14:22:22;;;;;;;1.90;1.27;;;;;;;13.45;46.31;97713.97;6327889;27;20268;-38
2023/02/21 14:25:27;;;;;;;2.13;1.40;;;;;;;13.39;46.56;97702.38;6327617;28;20240;-39
2023/02/21 14:28:48;;;;;;;3.70;1.20;;;;;;;13.26;47.46;97702.06;6329564;28;20220;-38
2023/02/21 14:31:57;;;;;;;2.30;1.60;;;;;;;13.18;47.29;97696.09;6325288;28;20359;-39
2023/02/21 14:35:01;;;;;;;3.47;1.57;;;;;;;12.81;47.93;97663.22;6326953;28;20260;-38
2023/02/21 14:38:14;;;;;;;2.30;1.70;;;;;;;13.10;47.86;97712.63;6327335;28;20761;-38
2023/02/21 14:41:49;;;;;;;2.37;1.50;;;;;;;13.08;48.07;97711.25;6323315;28;20232;-38
2023/02/21 14:45:19;;;;;;;1.87;1.40;;;;;;;12.96;48.28;97694.63;6325707;28;20228;-38
2023/02/21 14:48:41;;;;;;;1.90;1.30;;;;;;;13.03;48.83;97705.88;6309125;28;20233;-39
2023/02/21 14:52:17;;;;;;;2.67;1.37;;;;;;;12.90;48.55;97705.25;6325699;28;20308;-39
2023/02/21 14:55:33;;;;;;;3.10;1.43;;;;;;;12.91;48.40;97696.19;6321356;28;20711;-39
2023/02/21 14:58:41;;;;;;;3.00;1.70;;;;;;;12.92;48.66;97699.66;6329266;28;20341;-38
2023/02/21 15:02:13;;;;;;;1.97;1.60;;;;;;;12.96;48.84;97702.63;6330591;28;20231;-38
2023/02/21 15:05:33;;;;;;;1.73;1.37;;;;;;;12.91;48.68;97698.84;6332115;27;20611;-39
2023/02/21 15:08:42;;;;;;;1.70;1.40;;;;;;;12.68;48.64;97661.78;6312067;28;20519;-38
2023/02/21 15:11:46;;;;;;;1.10;0.87;;;;;;;12.83;48.90;97696.66;6314400;28;20582;-39
2023/02/21 15:14:52;;;;;;;3.40;1.33;;;;;;;12.75;49.58;97685.59;6302323;28;20232;-38
2023/02/21 15:18:03;;;;;;;2.17;1.77;;;;;;;12.54;50.26;97681.97;6330640;28;20601;-38
2023/02/21 15:21:17;;;;;;;1.73;1.30;;;;;;;12.47;50.58;97678.72;6330690;27;20225;-38
2023/02/21 15:24:19;;;;;;;1.73;1.30;;;;;;;12.36;50.32;97673.28;6335153;27;20205;-38
2023/02/21 15:27:21;;;;;;;2.00;1.33;;;;;;;12.25;50.56;97665.41;6333503;27;20308;-38
2023/02/21 15:30:25;;;;;;;1.53;1.03;;;;;;;12.31;50.56;97680.41;6324610;27;20228;-38
2023/02/21 15:33:32;;;;;;;2.77;1.40;;;;;;;12.23;50.74;97687.03;6331391;27;20236;-38
2023/02/21 15:36:35;;;;;;;3.40;1.53;;;;;;;12.22;51.07;97676.59;6330605;28;20233;-38
2023/02/21 15:39:40;;;;;;;2.53;1.63;;;;;;;12.16;51.54;97681.06;6330673;27;20236;-38
2023/02/21 15:42:45;;;;;;;1.93;1.17;;;;;;;12.12;51.40;97691.47;6333045;27;20239;-38
2023/02/21 15:45:48;;;;;;;2.23;1.40;;;;;;;12.12;51.58;97678.13;6332760;27;20237;-38
2023/02/21 15:48:55;;;;;;;1.70;1.50;;;;;;;12.02;52.35;97672.66;6332363;27;20336;-38
2023/02/21 15:51:58;;;;;;;2.87;1.50;;;;;;;12.02;52.60;97678.00;6332167;27;20239;-39
2023/02/21 15:55:18;;;;;;;2.23;1.30;;;;;;;11.96;52.43;97668.31;6330503;27;20752;-38
2023/02/21 15:58:22;;;;;;;2.13;1.27;;;;;;;11.91;52.78;97684.28;6327132;27;20241;-38
2023/02/21 16:01:24;;;;;;;2.10;1.40;;;;;;;11.83;53.54;97684.75;6331636;27;20696;-38
2023/02/21 16:04:36;;;;;;;3.27;1.50;;;;;;;11.83;53.14;97684.75;6331182;28;20228;-38
2023/02/21 16:07:39;;;;;;;1.67;1.20;;;;;;;11.83;52.93;97682.06;6326384;28;20295;-39
2023/02/21 16:10:42;;;;;;;1.13;1.00;;;;;;;11.70;53.75;97687.75;6329913;27;20232;-38
2023/02/21 16:13:45;;;;;;;3.73;1.43;;;;;;;11.57;54.54;97687.03;6329780;28;20797;-38
2023/02/21 16:17:05;;;;;;;2.47;1.60;;;;;;;11.45;55.13;97688.22;6313310;28;20727;-39
2023/02/21 16:20:31;;;;;;;1.83;1.33;;;;;;;11.17;54.83;97671.31;6330112;28;20705;-38
2023/02/21 16:23:39;;;;;;;3.70;1.57;;;;;;;11.29;55.36;97695.22;6333410;27;20240;-38
2023/02/21 16:26:41;;;;;;;2.33;1.40;;;;;;;11.33;55.29;97693.69;6328664;27;20692;-38
2023/02/21 16:29:43;;;;;;;4.10;1.10;;;;;;;11.27;55.63;97691.97;6332823;27;20221;-38
2023/02/21 16:32:47;;;;;;;1.23;1.13;;;;;;;11.22;55.23;97698.03;6331130;27;20362;-39
2023/02/21 16:35:49;;;;;;;1.50;1.17;;;;;;;11.22;55.22;97702.56;6329043;27;20231;-39
2023/02/21 16:38:53;;;;;;;1.73;1.10;;;;;;;11.19;55.87;97705.75;6329749;27;20224;-38
2023/02/21 16:41:56;;;;;;;1.63;1.10;;;;;;;11.04;56.09;97696.47;6329618;27;20257;-38
2023/02/21 16:44:58;;;;;;;1.33;1.00;;;;;;;10.94;56.25;97693.66;6331397;27;20731;-38
2023/02/21 16:48:04;;;;;;;1.70;1.20;;;;;;;11.09;56.17;97712.53;6326455;27;20422;-37
2023/02/21 16:51:15;;;;;;;1.17;0.80;;;;;;;10.97;56.07;97719.81;6329205;28;20221;-38
2023/02/21 16:54:18;;;;;;;2.07;1.20;;;;;;;10.94;56.27;97716.84;6329417;27;20376;-38
2023/02/21 16:57:20;;;;;;;1.20;1.10;;;;;;;10.99;56.38;97712.41;6329995;27;20265;-38
2023/02/21 17:00:25;;;;;;;1.33;1.10;;;;;;;11.00;56.60;97723.84;6330268;28;20231;-38
2023/02/21 17:03:29;;;;;;;3.13;1.40;;;;;;;10.75;56.32;97685.09;6330348;27;20228;-38
2023/02/21 17:06:40;;;;;;;2.40;1.30;;;;;;;10.96;56.48;97723.53;6326942;27;20300;-38